Главная страница
METAR-TAF:

METAR-TAF

Аэропорты :

Сённерборг, Дания

широта: 54-58N, долгота: 009-47E, высота над уровнем моря: 7 м

Текущие метеонаблюдения

Эта сводка был подготовлена 16 минут назад, в 05:50 UTC
Ветер 5 Узел от южный-юго-западный
Температура 10°C
Влажность 87%
Давление 1011 hPa
Видимость 10 км и более

METAR: EKSB 230550Z AUTO 21005KT 9999NDV FEW035/// FEW078/// 10/08 Q1011

Время: 08:06 (06:06 UTC)

Прогноз

Эта сводка был подготовлена 18 часа и 14 минут назад, в 11:52 UTC
Прогноз действительный с 22-го 12 UTC до 22-го 16 UTC
Ветер 15 Узел от западный
Видимость 10 км и более
Отдельные облака на высоте 2000 фута
временами
С 22-го 12 UTC до 22-го 16 UTC
Ветер 15 Узел от западный с порывами до 28 Узел
Видимость: 4000 м
Отдельные облака на высоте 2000 фута, Кучево-дождевые.
ливневые дожди

TAF: EKSB 221152Z 2212/2216 26015KT 9999 SCT020 TEMPO 2212/2216 26015G28KT 4000 SHRA SCT020CB

Метеонаблюдения и прогнозы для более 4000 аэропортов (сводки METAR и TAF).

Имеющиеся станции представлены на карте желтыми и красными точками.

Чтобы увидеть название станции, наведите на нее мышь.

Затем щелкните, чтобы увидеть метеонаблюдения и метеопрогнозы.

Управление картой: чтобы увеличить масштаб, щелкните зеленые кнопки с черным крестиком; чтобы уменьшить масштаб, щелкните зеленую кнопку с тире; для просмотра соседних карт щелкайте зеленые стрелки.


METAR-TAF: